sensor_id;sensor_type;location;lat;lon;timestamp;P1;durP1;ratioP1;P2;durP2;ratioP2
16731;SDS011;8484;50.904;9.192;2023-01-10T00:00:45;9.80;;;9.20;;
16731;SDS011;8484;50.904;9.192;2023-01-10T00:03:12;10.00;;;9.40;;
16731;SDS011;8484;50.904;9.192;2023-01-10T00:05:39;10.37;;;9.47;;
16731;SDS011;8484;50.904;9.192;2023-01-10T00:08:06;9.67;;;9.00;;
16731;SDS011;8484;50.904;9.192;2023-01-10T00:10:35;9.63;;;9.00;;
16731;SDS011;8484;50.904;9.192;2023-01-10T00:13:03;10.00;;;9.40;;
16731;SDS011;8484;50.904;9.192;2023-01-10T00:15:47;9.53;;;8.93;;
16731;SDS011;8484;50.904;9.192;2023-01-10T00:18:14;9.87;;;9.17;;
16731;SDS011;8484;50.904;9.192;2023-01-10T00:20:40;10.20;;;9.20;;
16731;SDS011;8484;50.904;9.192;2023-01-10T00:23:09;9.80;;;9.17;;
16731;SDS011;8484;50.904;9.192;2023-01-10T00:25:38;10.10;;;9.30;;
16731;SDS011;8484;50.904;9.192;2023-01-10T00:28:06;9.80;;;9.17;;
16731;SDS011;8484;50.904;9.192;2023-01-10T00:30:52;9.63;;;9.03;;
16731;SDS011;8484;50.904;9.192;2023-01-10T00:33:25;9.83;;;9.13;;
16731;SDS011;8484;50.904;9.192;2023-01-10T00:35:52;10.00;;;9.20;;
16731;SDS011;8484;50.904;9.192;2023-01-10T00:38:21;9.83;;;9.23;;
16731;SDS011;8484;50.904;9.192;2023-01-10T00:40:50;9.80;;;9.10;;
16731;SDS011;8484;50.904;9.192;2023-01-10T00:43:17;9.93;;;9.23;;
16731;SDS011;8484;50.904;9.192;2023-01-10T00:46:02;9.90;;;9.30;;
16731;SDS011;8484;50.904;9.192;2023-01-10T00:48:29;9.90;;;9.30;;
16731;SDS011;8484;50.904;9.192;2023-01-10T00:50:56;10.20;;;9.50;;
16731;SDS011;8484;50.904;9.192;2023-01-10T00:53:22;10.40;;;9.80;;
16731;SDS011;8484;50.904;9.192;2023-01-10T00:55:51;10.10;;;9.50;;
16731;SDS011;8484;50.904;9.192;2023-01-10T00:58:18;10.67;;;9.87;;
16731;SDS011;8484;50.904;9.192;2023-01-10T01:00:46;10.60;;;9.90;;
16731;SDS011;8484;50.904;9.192;2023-01-10T01:03:13;10.77;;;10.07;;
16731;SDS011;8484;50.904;9.192;2023-01-10T01:05:41;11.33;;;10.37;;
16731;SDS011;8484;50.904;9.192;2023-01-10T01:08:09;10.70;;;9.90;;
16731;SDS011;8484;50.904;9.192;2023-01-10T01:10:36;10.70;;;10.10;;
16731;SDS011;8484;50.904;9.192;2023-01-10T01:13:06;8.57;;;8.00;;
16731;SDS011;8484;50.904;9.192;2023-01-10T01:15:35;10.90;;;10.00;;
16731;SDS011;8484;50.904;9.192;2023-01-10T01:18:02;10.90;;;9.97;;
16731;SDS011;8484;50.904;9.192;2023-01-10T01:20:31;10.50;;;9.80;;
16731;SDS011;8484;50.904;9.192;2023-01-10T01:23:01;10.60;;;9.90;;
16731;SDS011;8484;50.904;9.192;2023-01-10T01:25:28;11.00;;;10.10;;
16731;SDS011;8484;50.904;9.192;2023-01-10T01:27:54;10.50;;;9.70;;
16731;SDS011;8484;50.904;9.192;2023-01-10T01:30:23;9.80;;;9.20;;
16731;SDS011;8484;50.904;9.192;2023-01-10T01:32:50;10.60;;;9.90;;
16731;SDS011;8484;50.904;9.192;2023-01-10T01:35:16;10.50;;;9.80;;
16731;SDS011;8484;50.904;9.192;2023-01-10T01:37:43;10.93;;;10.13;;
16731;SDS011;8484;50.904;9.192;2023-01-10T01:40:11;10.77;;;9.97;;
16731;SDS011;8484;50.904;9.192;2023-01-10T01:42:39;10.83;;;9.93;;
16731;SDS011;8484;50.904;9.192;2023-01-10T01:48:00;10.80;;;10.00;;
16731;SDS011;8484;50.904;9.192;2023-01-10T01:50:34;10.47;;;9.73;;
16731;SDS011;8484;50.904;9.192;2023-01-10T01:53:09;11.07;;;10.27;;
16731;SDS011;8484;50.904;9.192;2023-01-10T01:55:38;10.60;;;9.90;;
16731;SDS011;8484;50.904;9.192;2023-01-10T01:58:07;10.20;;;9.60;;
16731;SDS011;8484;50.904;9.192;2023-01-10T02:00:40;10.63;;;9.83;;
16731;SDS011;8484;50.904;9.192;2023-01-10T02:03:07;10.70;;;9.90;;
16731;SDS011;8484;50.904;9.192;2023-01-10T02:05:34;10.47;;;9.77;;
16731;SDS011;8484;50.904;9.192;2023-01-10T02:08:04;10.30;;;9.60;;
16731;SDS011;8484;50.904;9.192;2023-01-10T02:10:33;10.63;;;9.73;;
16731;SDS011;8484;50.904;9.192;2023-01-10T02:13:04;10.40;;;9.60;;
16731;SDS011;8484;50.904;9.192;2023-01-10T02:15:34;10.40;;;9.60;;
16731;SDS011;8484;50.904;9.192;2023-01-10T02:18:02;10.23;;;9.53;;
16731;SDS011;8484;50.904;9.192;2023-01-10T02:20:36;10.47;;;9.67;;
16731;SDS011;8484;50.904;9.192;2023-01-10T02:26:15;10.67;;;9.93;;
16731;SDS011;8484;50.904;9.192;2023-01-10T02:32:20;11.03;;;10.13;;
16731;SDS011;8484;50.904;9.192;2023-01-10T02:34:58;10.80;;;10.10;;
16731;SDS011;8484;50.904;9.192;2023-01-10T02:37:35;11.23;;;10.43;;
16731;SDS011;8484;50.904;9.192;2023-01-10T02:40:10;10.77;;;9.97;;
16731;SDS011;8484;50.904;9.192;2023-01-10T02:42:45;11.10;;;10.20;;
16731;SDS011;8484;50.904;9.192;2023-01-10T02:45:20;11.07;;;10.27;;
16731;SDS011;8484;50.904;9.192;2023-01-10T02:47:52;11.33;;;10.53;;
16731;SDS011;8484;50.904;9.192;2023-01-10T02:50:24;10.83;;;10.03;;
16731;SDS011;8484;50.904;9.192;2023-01-10T02:52:55;11.00;;;10.27;;
16731;SDS011;8484;50.904;9.192;2023-01-10T02:55:25;10.40;;;9.80;;
16731;SDS011;8484;50.904;9.192;2023-01-10T02:58:00;11.20;;;10.30;;
16731;SDS011;8484;50.904;9.192;2023-01-10T03:00:37;11.37;;;10.27;;
16731;SDS011;8484;50.904;9.192;2023-01-10T03:03:13;11.50;;;10.70;;
16731;SDS011;8484;50.904;9.192;2023-01-10T03:06:00;11.53;;;10.70;;
16731;SDS011;8484;50.904;9.192;2023-01-10T03:08:36;11.20;;;10.47;;
16731;SDS011;8484;50.904;9.192;2023-01-10T03:11:08;11.50;;;10.60;;
16731;SDS011;8484;50.904;9.192;2023-01-10T03:13:36;11.20;;;10.20;;
16731;SDS011;8484;50.904;9.192;2023-01-10T03:16:10;10.93;;;10.20;;
16731;SDS011;8484;50.904;9.192;2023-01-10T03:18:42;11.03;;;10.23;;
16731;SDS011;8484;50.904;9.192;2023-01-10T03:21:12;10.77;;;10.03;;
16731;SDS011;8484;50.904;9.192;2023-01-10T03:23:41;10.67;;;9.90;;
16731;SDS011;8484;50.904;9.192;2023-01-10T03:26:08;10.70;;;10.00;;
16731;SDS011;8484;50.904;9.192;2023-01-10T03:28:38;10.90;;;10.10;;
16731;SDS011;8484;50.904;9.192;2023-01-10T03:31:12;10.80;;;10.03;;
16731;SDS011;8484;50.904;9.192;2023-01-10T03:33:44;10.93;;;10.13;;
16731;SDS011;8484;50.904;9.192;2023-01-10T03:36:14;11.20;;;10.40;;
16731;SDS011;8484;50.904;9.192;2023-01-10T03:38:51;11.87;;;11.00;;
16731;SDS011;8484;50.904;9.192;2023-01-10T03:41:22;11.80;;;10.80;;
16731;SDS011;8484;50.904;9.192;2023-01-10T03:44:00;11.90;;;11.10;;
16731;SDS011;8484;50.904;9.192;2023-01-10T03:46:55;12.13;;;11.33;;
16731;SDS011;8484;50.904;9.192;2023-01-10T03:49:26;11.23;;;10.53;;
16731;SDS011;8484;50.904;9.192;2023-01-10T03:51:55;11.27;;;10.57;;
16731;SDS011;8484;50.904;9.192;2023-01-10T03:54:23;11.77;;;10.90;;
16731;SDS011;8484;50.904;9.192;2023-01-10T03:56:50;11.33;;;10.50;;
16731;SDS011;8484;50.904;9.192;2023-01-10T03:59:18;11.60;;;10.73;;
16731;SDS011;8484;50.904;9.192;2023-01-10T04:01:47;10.93;;;10.13;;
16731;SDS011;8484;50.904;9.192;2023-01-10T04:04:14;11.13;;;10.13;;
16731;SDS011;8484;50.904;9.192;2023-01-10T04:06:42;10.70;;;10.00;;
16731;SDS011;8484;50.904;9.192;2023-01-10T04:09:10;10.43;;;9.83;;
16731;SDS011;8484;50.904;9.192;2023-01-10T04:11:37;11.23;;;10.43;;
16731;SDS011;8484;50.904;9.192;2023-01-10T04:14:04;10.90;;;10.00;;
16731;SDS011;8484;50.904;9.192;2023-01-10T04:16:31;11.13;;;10.33;;
16731;SDS011;8484;50.904;9.192;2023-01-10T04:18:58;11.63;;;10.77;;
16731;SDS011;8484;50.904;9.192;2023-01-10T04:21:25;12.10;;;11.20;;
16731;SDS011;8484;50.904;9.192;2023-01-10T04:23:53;13.77;;;12.57;;
16731;SDS011;8484;50.904;9.192;2023-01-10T04:26:20;14.33;;;13.23;;
16731;SDS011;8484;50.904;9.192;2023-01-10T04:28:46;14.70;;;13.60;;
16731;SDS011;8484;50.904;9.192;2023-01-10T04:31:13;14.87;;;13.80;;
16731;SDS011;8484;50.904;9.192;2023-01-10T04:33:40;14.93;;;13.93;;
16731;SDS011;8484;50.904;9.192;2023-01-10T04:36:07;15.93;;;14.53;;
16731;SDS011;8484;50.904;9.192;2023-01-10T04:38:34;15.80;;;14.30;;
16731;SDS011;8484;50.904;9.192;2023-01-10T04:41:02;15.27;;;14.00;;
16731;SDS011;8484;50.904;9.192;2023-01-10T04:43:30;14.37;;;13.20;;
16731;SDS011;8484;50.904;9.192;2023-01-10T04:45:56;13.07;;;12.10;;
16731;SDS011;8484;50.904;9.192;2023-01-10T04:48:23;13.97;;;12.83;;
16731;SDS011;8484;50.904;9.192;2023-01-10T04:50:51;14.57;;;13.30;;
16731;SDS011;8484;50.904;9.192;2023-01-10T04:53:19;13.57;;;12.53;;
16731;SDS011;8484;50.904;9.192;2023-01-10T04:55:46;14.00;;;13.03;;
16731;SDS011;8484;50.904;9.192;2023-01-10T04:58:15;12.93;;;12.07;;
16731;SDS011;8484;50.904;9.192;2023-01-10T05:00:41;13.43;;;12.47;;
16731;SDS011;8484;50.904;9.192;2023-01-10T05:03:08;13.53;;;12.53;;
16731;SDS011;8484;50.904;9.192;2023-01-10T05:05:35;13.50;;;12.20;;
16731;SDS011;8484;50.904;9.192;2023-01-10T05:08:02;12.93;;;11.90;;
16731;SDS011;8484;50.904;9.192;2023-01-10T05:10:29;13.27;;;12.33;;
16731;SDS011;8484;50.904;9.192;2023-01-10T05:12:56;12.97;;;11.97;;
16731;SDS011;8484;50.904;9.192;2023-01-10T05:15:24;12.03;;;11.23;;
16731;SDS011;8484;50.904;9.192;2023-01-10T05:17:56;12.90;;;11.87;;
16731;SDS011;8484;50.904;9.192;2023-01-10T05:20:23;12.63;;;11.73;;
16731;SDS011;8484;50.904;9.192;2023-01-10T05:22:50;12.43;;;11.50;;
16731;SDS011;8484;50.904;9.192;2023-01-10T05:25:17;13.57;;;12.57;;
16731;SDS011;8484;50.904;9.192;2023-01-10T05:27:44;13.00;;;12.00;;
16731;SDS011;8484;50.904;9.192;2023-01-10T05:30:11;12.93;;;12.03;;
16731;SDS011;8484;50.904;9.192;2023-01-10T05:32:40;12.87;;;11.93;;
16731;SDS011;8484;50.904;9.192;2023-01-10T05:35:07;12.23;;;11.07;;
16731;SDS011;8484;50.904;9.192;2023-01-10T05:37:34;13.27;;;11.53;;
16731;SDS011;8484;50.904;9.192;2023-01-10T05:40:01;12.10;;;11.20;;
16731;SDS011;8484;50.904;9.192;2023-01-10T05:42:29;12.63;;;11.60;;
16731;SDS011;8484;50.904;9.192;2023-01-10T05:44:56;12.47;;;11.50;;
16731;SDS011;8484;50.904;9.192;2023-01-10T05:47:22;12.00;;;11.00;;
16731;SDS011;8484;50.904;9.192;2023-01-10T05:49:51;12.43;;;11.23;;
16731;SDS011;8484;50.904;9.192;2023-01-10T05:52:17;12.83;;;11.57;;
16731;SDS011;8484;50.904;9.192;2023-01-10T05:54:44;12.07;;;11.27;;
16731;SDS011;8484;50.904;9.192;2023-01-10T05:57:11;12.20;;;11.10;;
16731;SDS011;8484;50.904;9.192;2023-01-10T05:59:38;12.37;;;11.37;;
16731;SDS011;8484;50.904;9.192;2023-01-10T06:02:05;12.90;;;11.60;;
16731;SDS011;8484;50.904;9.192;2023-01-10T06:04:31;12.63;;;11.63;;
16731;SDS011;8484;50.904;9.192;2023-01-10T06:07:00;12.33;;;11.23;;
16731;SDS011;8484;50.904;9.192;2023-01-10T06:09:27;12.37;;;11.20;;
16731;SDS011;8484;50.904;9.192;2023-01-10T06:11:54;12.40;;;11.40;;
16731;SDS011;8484;50.904;9.192;2023-01-10T06:14:21;12.87;;;11.70;;
16731;SDS011;8484;50.904;9.192;2023-01-10T06:16:47;12.97;;;11.90;;
16731;SDS011;8484;50.904;9.192;2023-01-10T06:19:14;12.83;;;11.63;;
16731;SDS011;8484;50.904;9.192;2023-01-10T06:21:41;13.10;;;11.90;;
16731;SDS011;8484;50.904;9.192;2023-01-10T06:24:10;13.10;;;11.90;;
16731;SDS011;8484;50.904;9.192;2023-01-10T06:26:37;13.20;;;11.90;;
16731;SDS011;8484;50.904;9.192;2023-01-10T06:29:04;13.57;;;12.27;;
16731;SDS011;8484;50.904;9.192;2023-01-10T06:31:30;13.13;;;12.07;;
16731;SDS011;8484;50.904;9.192;2023-01-10T06:33:57;13.43;;;12.10;;
16731;SDS011;8484;50.904;9.192;2023-01-10T06:36:24;13.23;;;12.10;;
16731;SDS011;8484;50.904;9.192;2023-01-10T06:38:51;12.60;;;11.47;;
16731;SDS011;8484;50.904;9.192;2023-01-10T06:41:19;12.77;;;11.50;;
16731;SDS011;8484;50.904;9.192;2023-01-10T06:43:48;13.53;;;12.20;;
16731;SDS011;8484;50.904;9.192;2023-01-10T06:46:15;13.33;;;11.93;;
16731;SDS011;8484;50.904;9.192;2023-01-10T06:48:47;12.83;;;11.63;;
16731;SDS011;8484;50.904;9.192;2023-01-10T06:51:14;12.80;;;11.50;;
16731;SDS011;8484;50.904;9.192;2023-01-10T06:53:42;12.90;;;11.67;;
16731;SDS011;8484;50.904;9.192;2023-01-10T06:56:09;12.30;;;11.10;;
16731;SDS011;8484;50.904;9.192;2023-01-10T06:58:37;12.57;;;11.47;;
16731;SDS011;8484;50.904;9.192;2023-01-10T07:01:05;13.50;;;11.70;;
16731;SDS011;8484;50.904;9.192;2023-01-10T07:03:32;12.60;;;11.50;;
16731;SDS011;8484;50.904;9.192;2023-01-10T07:06:00;12.83;;;11.53;;
16731;SDS011;8484;50.904;9.192;2023-01-10T07:08:27;12.43;;;11.33;;
16731;SDS011;8484;50.904;9.192;2023-01-10T07:10:56;12.13;;;11.13;;
16731;SDS011;8484;50.904;9.192;2023-01-10T07:13:27;13.87;;;11.27;;
16731;SDS011;8484;50.904;9.192;2023-01-10T07:16:01;12.07;;;10.83;;
16731;SDS011;8484;50.904;9.192;2023-01-10T07:18:28;12.10;;;11.10;;
16731;SDS011;8484;50.904;9.192;2023-01-10T07:20:55;11.73;;;10.70;;
16731;SDS011;8484;50.904;9.192;2023-01-10T07:23:21;12.50;;;11.13;;
16731;SDS011;8484;50.904;9.192;2023-01-10T07:25:48;11.53;;;10.43;;
16731;SDS011;8484;50.904;9.192;2023-01-10T07:28:15;12.23;;;10.80;;
16731;SDS011;8484;50.904;9.192;2023-01-10T07:30:42;12.00;;;10.80;;
16731;SDS011;8484;50.904;9.192;2023-01-10T07:33:11;10.93;;;10.07;;
16731;SDS011;8484;50.904;9.192;2023-01-10T07:35:38;13.10;;;11.33;;
16731;SDS011;8484;50.904;9.192;2023-01-10T07:38:05;13.43;;;12.20;;
16731;SDS011;8484;50.904;9.192;2023-01-10T07:40:33;14.57;;;13.43;;
16731;SDS011;8484;50.904;9.192;2023-01-10T07:43:00;15.13;;;13.93;;
16731;SDS011;8484;50.904;9.192;2023-01-10T07:45:28;15.10;;;13.90;;
16731;SDS011;8484;50.904;9.192;2023-01-10T07:47:56;14.33;;;13.03;;
16731;SDS011;8484;50.904;9.192;2023-01-10T07:50:24;12.80;;;11.67;;
16731;SDS011;8484;50.904;9.192;2023-01-10T07:52:52;12.23;;;11.20;;
16731;SDS011;8484;50.904;9.192;2023-01-10T07:55:19;11.30;;;10.20;;
16731;SDS011;8484;50.904;9.192;2023-01-10T07:57:48;12.17;;;10.13;;
16731;SDS011;8484;50.904;9.192;2023-01-10T08:00:16;11.37;;;10.17;;
16731;SDS011;8484;50.904;9.192;2023-01-10T08:02:43;11.97;;;10.77;;
16731;SDS011;8484;50.904;9.192;2023-01-10T08:05:10;10.67;;;9.87;;
16731;SDS011;8484;50.904;9.192;2023-01-10T08:07:38;11.40;;;10.00;;
16731;SDS011;8484;50.904;9.192;2023-01-10T08:10:06;11.77;;;10.47;;
16731;SDS011;8484;50.904;9.192;2023-01-10T08:12:33;11.33;;;10.23;;
16731;SDS011;8484;50.904;9.192;2023-01-10T08:15:00;11.83;;;10.70;;
16731;SDS011;8484;50.904;9.192;2023-01-10T08:17:27;10.90;;;10.07;;
16731;SDS011;8484;50.904;9.192;2023-01-10T08:19:54;10.93;;;9.97;;
16731;SDS011;8484;50.904;9.192;2023-01-10T08:22:21;11.83;;;10.33;;
16731;SDS011;8484;50.904;9.192;2023-01-10T08:24:49;11.30;;;10.13;;
16731;SDS011;8484;50.904;9.192;2023-01-10T08:27:16;11.23;;;10.23;;
16731;SDS011;8484;50.904;9.192;2023-01-10T08:29:43;11.07;;;10.07;;
16731;SDS011;8484;50.904;9.192;2023-01-10T08:32:10;11.30;;;10.20;;
16731;SDS011;8484;50.904;9.192;2023-01-10T08:34:37;11.80;;;10.60;;
16731;SDS011;8484;50.904;9.192;2023-01-10T08:37:04;11.40;;;10.40;;
16731;SDS011;8484;50.904;9.192;2023-01-10T08:39:31;10.97;;;9.97;;
16731;SDS011;8484;50.904;9.192;2023-01-10T08:42:00;12.77;;;10.47;;
16731;SDS011;8484;50.904;9.192;2023-01-10T08:44:27;10.73;;;9.93;;
16731;SDS011;8484;50.904;9.192;2023-01-10T08:46:54;11.30;;;10.40;;
16731;SDS011;8484;50.904;9.192;2023-01-10T08:49:21;11.23;;;10.30;;
16731;SDS011;8484;50.904;9.192;2023-01-10T08:51:48;11.63;;;10.33;;
16731;SDS011;8484;50.904;9.192;2023-01-10T08:54:15;11.43;;;10.47;;
16731;SDS011;8484;50.904;9.192;2023-01-10T08:56:42;11.33;;;10.23;;
16731;SDS011;8484;50.904;9.192;2023-01-10T08:59:10;11.57;;;10.53;;
16731;SDS011;8484;50.904;9.192;2023-01-10T09:01:37;13.20;;;12.10;;
16731;SDS011;8484;50.904;9.192;2023-01-10T09:04:04;12.07;;;10.97;;
16731;SDS011;8484;50.904;9.192;2023-01-10T09:06:31;15.20;;;13.90;;
16731;SDS011;8484;50.904;9.192;2023-01-10T09:08:57;17.00;;;15.60;;
16731;SDS011;8484;50.904;9.192;2023-01-10T09:11:24;15.67;;;14.27;;
16731;SDS011;8484;50.904;9.192;2023-01-10T09:13:51;13.80;;;12.40;;
16731;SDS011;8484;50.904;9.192;2023-01-10T09:16:19;12.67;;;11.47;;
16731;SDS011;8484;50.904;9.192;2023-01-10T09:18:46;14.00;;;12.70;;
16731;SDS011;8484;50.904;9.192;2023-01-10T09:21:13;15.10;;;13.63;;
16731;SDS011;8484;50.904;9.192;2023-01-10T09:23:40;14.57;;;13.27;;
16731;SDS011;8484;50.904;9.192;2023-01-10T09:26:08;14.50;;;13.30;;
16731;SDS011;8484;50.904;9.192;2023-01-10T09:28:35;14.67;;;13.27;;
16731;SDS011;8484;50.904;9.192;2023-01-10T09:31:02;14.10;;;13.10;;
16731;SDS011;8484;50.904;9.192;2023-01-10T09:33:32;14.23;;;13.13;;
16731;SDS011;8484;50.904;9.192;2023-01-10T09:35:59;15.00;;;13.60;;
16731;SDS011;8484;50.904;9.192;2023-01-10T09:38:25;14.40;;;13.10;;
16731;SDS011;8484;50.904;9.192;2023-01-10T09:40:56;14.47;;;13.07;;
16731;SDS011;8484;50.904;9.192;2023-01-10T09:43:36;14.23;;;13.03;;
16731;SDS011;8484;50.904;9.192;2023-01-10T09:46:11;13.67;;;12.67;;
16731;SDS011;8484;50.904;9.192;2023-01-10T09:48:46;13.53;;;12.53;;
16731;SDS011;8484;50.904;9.192;2023-01-10T09:51:22;13.40;;;12.30;;
16731;SDS011;8484;50.904;9.192;2023-01-10T09:53:58;13.67;;;12.47;;
16731;SDS011;8484;50.904;9.192;2023-01-10T09:56:28;14.27;;;13.17;;
16731;SDS011;8484;50.904;9.192;2023-01-10T09:58:56;13.37;;;12.30;;
16731;SDS011;8484;50.904;9.192;2023-01-10T10:01:24;13.33;;;12.17;;
16731;SDS011;8484;50.904;9.192;2023-01-10T10:04:04;12.47;;;11.27;;
16731;SDS011;8484;50.904;9.192;2023-01-10T10:06:41;12.80;;;11.60;;
16731;SDS011;8484;50.904;9.192;2023-01-10T10:09:09;12.43;;;11.40;;
16731;SDS011;8484;50.904;9.192;2023-01-10T10:11:48;12.50;;;11.60;;
16731;SDS011;8484;50.904;9.192;2023-01-10T10:14:31;13.17;;;12.07;;
16731;SDS011;8484;50.904;9.192;2023-01-10T10:17:07;13.07;;;11.73;;
16731;SDS011;8484;50.904;9.192;2023-01-10T10:19:54;13.13;;;11.83;;
16731;SDS011;8484;50.904;9.192;2023-01-10T10:22:34;12.80;;;11.73;;
16731;SDS011;8484;50.904;9.192;2023-01-10T10:25:11;12.83;;;11.83;;
16731;SDS011;8484;50.904;9.192;2023-01-10T10:27:50;16.00;;;12.97;;
16731;SDS011;8484;50.904;9.192;2023-01-10T10:30:34;13.87;;;12.67;;
16731;SDS011;8484;50.904;9.192;2023-01-10T10:33:15;14.20;;;12.80;;
16731;SDS011;8484;50.904;9.192;2023-01-10T10:35:59;14.43;;;13.13;;
16731;SDS011;8484;50.904;9.192;2023-01-10T10:38:31;14.57;;;13.20;;
16731;SDS011;8484;50.904;9.192;2023-01-10T10:41:02;14.97;;;13.63;;
16731;SDS011;8484;50.904;9.192;2023-01-10T10:43:30;14.60;;;13.27;;
16731;SDS011;8484;50.904;9.192;2023-01-10T10:45:59;14.63;;;13.43;;
16731;SDS011;8484;50.904;9.192;2023-01-10T10:48:29;15.33;;;13.80;;
16731;SDS011;8484;50.904;9.192;2023-01-10T10:51:01;14.73;;;13.43;;
16731;SDS011;8484;50.904;9.192;2023-01-10T10:53:32;14.67;;;13.47;;
16731;SDS011;8484;50.904;9.192;2023-01-10T10:56:00;15.03;;;13.70;;
16731;SDS011;8484;50.904;9.192;2023-01-10T10:58:29;14.30;;;13.20;;
16731;SDS011;8484;50.904;9.192;2023-01-10T11:00:56;15.53;;;14.03;;
16731;SDS011;8484;50.904;9.192;2023-01-10T11:03:25;15.77;;;14.47;;
16731;SDS011;8484;50.904;9.192;2023-01-10T11:06:04;15.13;;;14.03;;
16731;SDS011;8484;50.904;9.192;2023-01-10T11:08:32;15.47;;;14.03;;
16731;SDS011;8484;50.904;9.192;2023-01-10T11:11:02;15.43;;;14.20;;
16731;SDS011;8484;50.904;9.192;2023-01-10T11:13:39;15.77;;;14.30;;
16731;SDS011;8484;50.904;9.192;2023-01-10T11:16:21;15.97;;;14.77;;
16731;SDS011;8484;50.904;9.192;2023-01-10T11:21:38;14.27;;;12.43;;
16731;SDS011;8484;50.904;9.192;2023-01-10T11:24:13;14.07;;;12.80;;
16731;SDS011;8484;50.904;9.192;2023-01-10T11:26:50;13.93;;;12.70;;
16731;SDS011;8484;50.904;9.192;2023-01-10T11:29:18;13.43;;;12.27;;
16731;SDS011;8484;50.904;9.192;2023-01-10T11:31:47;13.00;;;11.90;;
16731;SDS011;8484;50.904;9.192;2023-01-10T11:34:20;13.43;;;12.30;;
16731;SDS011;8484;50.904;9.192;2023-01-10T11:36:57;13.33;;;12.00;;
16731;SDS011;8484;50.904;9.192;2023-01-10T11:39:26;12.73;;;11.53;;
16731;SDS011;8484;50.904;9.192;2023-01-10T11:41:55;14.70;;;12.10;;
16731;SDS011;8484;50.904;9.192;2023-01-10T11:44:24;13.50;;;12.17;;
16731;SDS011;8484;50.904;9.192;2023-01-10T11:46:53;13.93;;;12.53;;
16731;SDS011;8484;50.904;9.192;2023-01-10T11:49:24;13.67;;;12.47;;
16731;SDS011;8484;50.904;9.192;2023-01-10T11:51:59;13.70;;;12.37;;
16731;SDS011;8484;50.904;9.192;2023-01-10T11:54:30;12.93;;;11.93;;
16731;SDS011;8484;50.904;9.192;2023-01-10T11:56:59;14.10;;;12.83;;
16731;SDS011;8484;50.904;9.192;2023-01-10T11:59:27;13.87;;;12.63;;
16731;SDS011;8484;50.904;9.192;2023-01-10T12:01:56;14.97;;;13.37;;
16731;SDS011;8484;50.904;9.192;2023-01-10T12:04:26;14.77;;;13.43;;
16731;SDS011;8484;50.904;9.192;2023-01-10T12:06:57;14.63;;;13.23;;
16731;SDS011;8484;50.904;9.192;2023-01-10T12:09:32;14.37;;;13.17;;
16731;SDS011;8484;50.904;9.192;2023-01-10T12:12:00;15.23;;;12.83;;
16731;SDS011;8484;50.904;9.192;2023-01-10T12:14:28;14.63;;;13.23;;
16731;SDS011;8484;50.904;9.192;2023-01-10T12:16:57;15.33;;;13.73;;
16731;SDS011;8484;50.904;9.192;2023-01-10T12:19:26;14.87;;;13.40;;
16731;SDS011;8484;50.904;9.192;2023-01-10T12:21:53;14.60;;;13.10;;
16731;SDS011;8484;50.904;9.192;2023-01-10T12:24:26;17.03;;;15.57;;
16731;SDS011;8484;50.904;9.192;2023-01-10T12:26:57;13.93;;;12.53;;
16731;SDS011;8484;50.904;9.192;2023-01-10T12:29:27;12.90;;;11.93;;
16731;SDS011;8484;50.904;9.192;2023-01-10T12:31:58;15.13;;;12.77;;
16731;SDS011;8484;50.904;9.192;2023-01-10T12:34:29;15.57;;;14.00;;
16731;SDS011;8484;50.904;9.192;2023-01-10T12:37:03;15.50;;;14.00;;
16731;SDS011;8484;50.904;9.192;2023-01-10T12:39:37;15.17;;;13.77;;
16731;SDS011;8484;50.904;9.192;2023-01-10T12:42:18;15.27;;;13.70;;
16731;SDS011;8484;50.904;9.192;2023-01-10T12:45:11;16.23;;;14.63;;
16731;SDS011;8484;50.904;9.192;2023-01-10T12:47:47;16.23;;;14.60;;
16731;SDS011;8484;50.904;9.192;2023-01-10T12:50:22;15.40;;;14.03;;
16731;SDS011;8484;50.904;9.192;2023-01-10T12:52:53;16.90;;;13.97;;
16731;SDS011;8484;50.904;9.192;2023-01-10T12:55:28;15.43;;;14.03;;
16731;SDS011;8484;50.904;9.192;2023-01-10T12:58:00;15.47;;;14.03;;
16731;SDS011;8484;50.904;9.192;2023-01-10T13:00:30;16.00;;;14.50;;
16731;SDS011;8484;50.904;9.192;2023-01-10T13:03:02;15.53;;;14.17;;
16731;SDS011;8484;50.904;9.192;2023-01-10T13:05:36;15.83;;;14.43;;
16731;SDS011;8484;50.904;9.192;2023-01-10T13:08:03;15.60;;;14.07;;
16731;SDS011;8484;50.904;9.192;2023-01-10T13:10:33;15.33;;;14.07;;
16731;SDS011;8484;50.904;9.192;2023-01-10T13:13:05;16.37;;;14.83;;
16731;SDS011;8484;50.904;9.192;2023-01-10T13:15:40;15.97;;;14.60;;
16731;SDS011;8484;50.904;9.192;2023-01-10T13:18:15;15.60;;;14.17;;
16731;SDS011;8484;50.904;9.192;2023-01-10T13:20:45;16.03;;;14.73;;
16731;SDS011;8484;50.904;9.192;2023-01-10T13:23:26;15.63;;;14.27;;
16731;SDS011;8484;50.904;9.192;2023-01-10T13:25:57;15.13;;;13.80;;
16731;SDS011;8484;50.904;9.192;2023-01-10T13:28:28;14.50;;;13.23;;
16731;SDS011;8484;50.904;9.192;2023-01-10T13:30:56;14.27;;;12.97;;
16731;SDS011;8484;50.904;9.192;2023-01-10T13:33:25;13.63;;;12.43;;
16731;SDS011;8484;50.904;9.192;2023-01-10T13:35:56;14.17;;;12.93;;
16731;SDS011;8484;50.904;9.192;2023-01-10T13:38:34;14.43;;;12.87;;
16731;SDS011;8484;50.904;9.192;2023-01-10T13:41:06;14.13;;;13.03;;
16731;SDS011;8484;50.904;9.192;2023-01-10T13:44:04;13.67;;;12.63;;
16731;SDS011;8484;50.904;9.192;2023-01-10T13:46:40;15.27;;;13.83;;
16731;SDS011;8484;50.904;9.192;2023-01-10T13:57:59;16.10;;;14.40;;
16731;SDS011;8484;50.904;9.192;2023-01-10T14:03:50;16.30;;;14.77;;
16731;SDS011;8484;50.904;9.192;2023-01-10T14:09:26;16.93;;;15.20;;
16731;SDS011;8484;50.904;9.192;2023-01-10T14:12:05;15.83;;;14.60;;
16731;SDS011;8484;50.904;9.192;2023-01-10T14:14:48;15.30;;;14.13;;
16731;SDS011;8484;50.904;9.192;2023-01-10T14:17:20;15.97;;;14.87;;
16731;SDS011;8484;50.904;9.192;2023-01-10T14:19:49;15.93;;;14.50;;
16731;SDS011;8484;50.904;9.192;2023-01-10T14:22:26;16.47;;;14.80;;
16731;SDS011;8484;50.904;9.192;2023-01-10T14:24:55;15.47;;;14.10;;
16731;SDS011;8484;50.904;9.192;2023-01-10T14:27:24;15.93;;;14.60;;
16731;SDS011;8484;50.904;9.192;2023-01-10T14:29:55;16.07;;;14.57;;
16731;SDS011;8484;50.904;9.192;2023-01-10T14:32:26;15.77;;;14.37;;
16731;SDS011;8484;50.904;9.192;2023-01-10T14:34:59;16.03;;;14.73;;
16731;SDS011;8484;50.904;9.192;2023-01-10T14:37:30;14.83;;;13.63;;
16731;SDS011;8484;50.904;9.192;2023-01-10T14:40:03;14.87;;;13.57;;
16731;SDS011;8484;50.904;9.192;2023-01-10T14:42:36;14.87;;;13.67;;
16731;SDS011;8484;50.904;9.192;2023-01-10T14:45:07;15.20;;;13.93;;
16731;SDS011;8484;50.904;9.192;2023-01-10T14:47:44;15.10;;;13.70;;
16731;SDS011;8484;50.904;9.192;2023-01-10T14:50:21;14.00;;;12.93;;
16731;SDS011;8484;50.904;9.192;2023-01-10T14:52:51;13.50;;;12.20;;
16731;SDS011;8484;50.904;9.192;2023-01-10T14:55:19;13.33;;;12.03;;
16731;SDS011;8484;50.904;9.192;2023-01-10T14:57:53;12.17;;;11.27;;
16731;SDS011;8484;50.904;9.192;2023-01-10T15:00:27;12.93;;;11.67;;
16731;SDS011;8484;50.904;9.192;2023-01-10T15:02:56;12.10;;;11.07;;
16731;SDS011;8484;50.904;9.192;2023-01-10T15:05:26;11.30;;;10.40;;
16731;SDS011;8484;50.904;9.192;2023-01-10T15:07:54;12.03;;;10.57;;
16731;SDS011;8484;50.904;9.192;2023-01-10T15:10:40;13.83;;;10.10;;
16731;SDS011;8484;50.904;9.192;2023-01-10T15:13:12;11.37;;;10.33;;
16731;SDS011;8484;50.904;9.192;2023-01-10T15:15:42;11.37;;;10.27;;
16731;SDS011;8484;50.904;9.192;2023-01-10T15:18:23;10.67;;;9.63;;
16731;SDS011;8484;50.904;9.192;2023-01-10T15:20:57;10.83;;;9.77;;
16731;SDS011;8484;50.904;9.192;2023-01-10T15:23:32;12.13;;;11.23;;